createdAt,value
2023-02-16T00:02:12.508Z,32.00
2023-02-16T00:04:39.236Z,32.25
2023-02-16T00:07:05.905Z,31.55
2023-02-16T00:09:32.621Z,30.80
2023-02-16T00:11:59.398Z,30.55
2023-02-16T00:14:27.075Z,31.27
2023-02-16T00:16:58.709Z,29.48
2023-02-16T00:19:31.034Z,30.15
2023-02-16T00:21:59.411Z,30.23
2023-02-16T00:24:28.058Z,29.55
2023-02-16T00:26:55.712Z,30.00
2023-02-16T00:29:30.248Z,30.10
2023-02-16T00:31:58.569Z,31.17
2023-02-16T00:34:32.438Z,30.77
2023-02-16T00:37:04.860Z,30.05
2023-02-16T00:39:32.182Z,29.60
2023-02-16T00:42:02.406Z,29.95
2023-02-16T00:44:40.178Z,30.98
2023-02-16T00:47:20.486Z,30.17
2023-02-16T00:49:49.990Z,30.42
2023-02-16T00:52:28.614Z,30.70
2023-02-16T00:54:56.189Z,29.48
2023-02-16T00:57:24.048Z,31.17
2023-02-16T01:00:02.066Z,29.70
2023-02-16T01:02:29.428Z,31.23
2023-02-16T01:04:56.118Z,30.98
2023-02-16T01:07:22.896Z,31.05
2023-02-16T01:09:49.627Z,29.85
2023-02-16T01:12:18.998Z,30.65
2023-02-16T01:14:49.278Z,30.60
2023-02-16T01:17:15.958Z,30.98
2023-02-16T01:19:42.869Z,32.53
2023-02-16T01:22:09.563Z,32.92
2023-02-16T01:24:36.327Z,33.03
2023-02-16T01:27:03.128Z,32.10
2023-02-16T01:29:29.820Z,32.42
2023-02-16T01:31:56.859Z,32.65
2023-02-16T01:34:23.596Z,33.40
2023-02-16T01:36:50.261Z,34.08
2023-02-16T01:39:19.299Z,33.95
2023-02-16T01:41:54.883Z,32.35
2023-02-16T01:44:25.502Z,32.60
2023-02-16T01:47:00.124Z,32.70
2023-02-16T01:49:27.940Z,31.67
2023-02-16T01:52:13.052Z,33.42
2023-02-16T01:54:54.311Z,33.33
2023-02-16T01:57:23.706Z,33.97
2023-02-16T01:59:50.306Z,33.70
2023-02-16T02:02:36.879Z,34.20
2023-02-16T02:05:27.901Z,34.80
2023-02-16T02:07:59.423Z,34.70
2023-02-16T02:10:32.218Z,36.05
2023-02-16T02:13:07.009Z,34.28
2023-02-16T02:15:34.868Z,35.27
2023-02-16T02:18:02.133Z,34.03
2023-02-16T02:21:03.329Z,34.38
2023-02-16T02:23:39.343Z,33.97
2023-02-16T02:26:36.993Z,33.58
2023-02-16T02:29:39.892Z,32.83
2023-02-16T02:32:36.438Z,33.65
2023-02-16T02:37:47.961Z,32.15
2023-02-16T02:40:17.490Z,32.78
2023-02-16T02:42:51.967Z,31.83
2023-02-16T02:45:32.452Z,33.33
2023-02-16T02:47:59.151Z,33.03
2023-02-16T02:50:44.595Z,32.17
2023-02-16T02:53:16.323Z,32.42
2023-02-16T02:55:48.290Z,31.83
2023-02-16T02:58:17.382Z,33.45
2023-02-16T03:00:45.238Z,32.38
2023-02-16T03:03:23.920Z,31.98
2023-02-16T03:06:13.567Z,32.53
2023-02-16T03:08:43.648Z,33.65
2023-02-16T03:11:18.557Z,33.38
2023-02-16T03:13:54.221Z,32.30
2023-02-16T03:18:49.197Z,30.77
2023-02-16T03:21:16.187Z,31.63
2023-02-16T03:23:45.017Z,32.17
2023-02-16T03:26:11.920Z,31.48
2023-02-16T03:28:41.807Z,31.55
2023-02-16T03:31:12.856Z,30.92
2023-02-16T03:33:40.661Z,31.63
2023-02-16T03:36:08.156Z,32.13
2023-02-16T03:38:35.187Z,32.80
2023-02-16T03:41:02.204Z,31.10
2023-02-16T03:43:29.256Z,34.17
2023-02-16T03:45:56.091Z,32.20
2023-02-16T03:48:22.880Z,32.70
2023-02-16T03:50:49.630Z,31.63
2023-02-16T03:53:18.236Z,30.42
2023-02-16T03:55:47.672Z,32.30
2023-02-16T03:58:17.294Z,33.92
2023-02-16T04:00:44.631Z,32.00
2023-02-16T04:03:11.622Z,31.20
2023-02-16T04:05:38.784Z,32.55
2023-02-16T04:08:06.715Z,31.98
2023-02-16T04:10:33.622Z,31.75
2023-02-16T04:13:00.326Z,31.02
2023-02-16T04:15:29.254Z,31.27
2023-02-16T04:17:56.366Z,32.28
2023-02-16T04:20:29.660Z,30.40
2023-02-16T04:22:56.582Z,30.08
2023-02-16T04:25:23.650Z,30.88
2023-02-16T04:27:51.513Z,31.02
2023-02-16T04:30:27.437Z,31.15
2023-02-16T04:32:54.257Z,28.65
2023-02-16T04:35:21.263Z,30.63
2023-02-16T04:37:48.418Z,29.05
2023-02-16T04:40:17.084Z,30.33
2023-02-16T04:42:45.011Z,28.45
2023-02-16T04:45:12.280Z,28.65
2023-02-16T04:47:39.110Z,28.23
2023-02-16T04:50:06.613Z,28.52
2023-02-16T04:52:33.291Z,28.90
2023-02-16T04:54:59.975Z,27.98
2023-02-16T04:57:26.717Z,27.70
2023-02-16T04:59:53.415Z,29.05
2023-02-16T05:02:20.111Z,29.60
2023-02-16T05:04:46.853Z,28.33
2023-02-16T05:07:13.551Z,29.52
2023-02-16T05:09:40.473Z,28.50
2023-02-16T05:12:07.390Z,28.50
2023-02-16T05:14:35.940Z,29.42
2023-02-16T05:17:02.761Z,29.95
2023-02-16T05:19:29.470Z,28.55
2023-02-16T05:21:56.134Z,28.25
2023-02-16T05:24:22.957Z,29.08
2023-02-16T05:26:49.671Z,29.30
2023-02-16T05:29:16.330Z,28.88
2023-02-16T05:31:43.077Z,29.98
2023-02-16T05:34:09.859Z,28.27
2023-02-16T05:36:36.556Z,27.77
2023-02-16T05:39:03.295Z,29.35
2023-02-16T05:41:29.979Z,29.40
2023-02-16T05:43:59.774Z,29.98
2023-02-16T05:46:28.964Z,28.98
2023-02-16T05:48:55.814Z,29.20
2023-02-16T05:51:22.475Z,29.80
2023-02-16T05:53:49.264Z,29.23
2023-02-16T05:56:16.785Z,29.52
2023-02-16T05:58:43.490Z,29.90
2023-02-16T06:01:10.350Z,28.80
2023-02-16T06:03:37.257Z,29.65
2023-02-16T06:06:05.048Z,29.15
2023-02-16T06:08:32.580Z,29.25
2023-02-16T06:11:00.098Z,29.40
2023-02-16T06:13:26.879Z,29.35
2023-02-16T06:15:55.938Z,29.48
2023-02-16T06:18:26.401Z,28.90
2023-02-16T06:20:56.241Z,29.02
2023-02-16T06:23:22.907Z,29.50
2023-02-16T06:25:50.381Z,29.05
2023-02-16T06:28:17.083Z,30.40
2023-02-16T06:30:44.041Z,29.45
2023-02-16T06:33:10.756Z,28.90
2023-02-16T06:35:37.506Z,29.67
2023-02-16T06:38:04.165Z,29.67
2023-02-16T06:40:30.818Z,30.48
2023-02-16T06:42:57.537Z,30.33
2023-02-16T06:45:24.192Z,31.85
2023-02-16T06:47:50.872Z,31.90
2023-02-16T06:50:17.767Z,30.35
2023-02-16T06:52:44.473Z,30.60
2023-02-16T06:55:11.230Z,31.60
2023-02-16T06:57:37.950Z,30.92
2023-02-16T07:00:07.034Z,29.50
2023-02-16T07:02:34.213Z,31.13
2023-02-16T07:05:01.218Z,29.50
2023-02-16T07:07:27.900Z,30.08
2023-02-16T07:09:54.705Z,29.88
2023-02-16T07:12:21.478Z,30.70
2023-02-16T07:14:48.279Z,30.33
2023-02-16T07:17:14.985Z,30.23
2023-02-16T07:19:41.868Z,30.77
2023-02-16T07:22:08.552Z,30.70
2023-02-16T07:24:35.183Z,30.10
2023-02-16T07:27:01.856Z,35.08
2023-02-16T07:29:28.786Z,31.13
2023-02-16T07:31:55.584Z,31.08
2023-02-16T07:34:22.397Z,31.20
2023-02-16T07:36:49.264Z,30.90
2023-02-16T07:39:16.176Z,30.73
2023-02-16T07:41:42.886Z,30.50
2023-02-16T07:44:09.594Z,31.52
2023-02-16T07:46:36.333Z,31.38
2023-02-16T07:49:03.268Z,30.33
2023-02-16T07:51:31.161Z,31.42
2023-02-16T07:53:59.993Z,34.08
2023-02-16T07:56:31.788Z,32.42
2023-02-16T07:59:00.606Z,32.42
2023-02-16T08:01:28.472Z,33.85
2023-02-16T08:03:55.195Z,33.67
2023-02-16T08:06:22.541Z,31.65
2023-02-16T08:08:49.791Z,32.15
2023-02-16T08:11:19.593Z,32.40
2023-02-16T08:13:46.601Z,33.72
2023-02-16T08:16:22.021Z,32.55
2023-02-16T08:18:49.228Z,32.75
2023-02-16T08:21:19.303Z,33.85
2023-02-16T08:23:51.808Z,33.75
2023-02-16T08:26:19.774Z,33.17
2023-02-16T08:28:47.879Z,33.55
2023-02-16T08:31:16.492Z,34.53
2023-02-16T08:33:43.811Z,35.00
2023-02-16T08:36:35.642Z,35.00
2023-02-16T08:39:11.945Z,33.58
2023-02-16T08:41:39.190Z,34.25
2023-02-16T08:44:06.959Z,34.50
2023-02-16T08:46:35.419Z,34.47
2023-02-16T08:49:03.146Z,35.53
2023-02-16T08:51:32.632Z,34.03
2023-02-16T08:54:00.234Z,34.63
2023-02-16T08:56:28.342Z,35.78
2023-02-16T08:58:55.450Z,34.10
2023-02-16T09:01:22.214Z,35.22
2023-02-16T09:03:49.445Z,36.55
2023-02-16T09:06:19.209Z,36.17
2023-02-16T09:08:49.718Z,36.53
2023-02-16T09:11:16.509Z,34.42
2023-02-16T09:13:43.373Z,36.65
2023-02-16T09:16:12.530Z,36.53
2023-02-16T09:18:39.901Z,36.95
2023-02-16T09:21:14.908Z,35.33
2023-02-16T09:23:44.771Z,37.15
2023-02-16T09:26:11.671Z,36.15
2023-02-16T09:28:39.923Z,36.65
2023-02-16T09:31:15.547Z,37.35
2023-02-16T09:36:11.717Z,37.90
2023-02-16T09:38:40.215Z,36.78
2023-02-16T09:41:15.645Z,36.72
2023-02-16T09:43:51.879Z,37.45
2023-02-16T09:46:22.689Z,36.63
2023-02-16T09:48:50.898Z,37.65
2023-02-16T09:51:36.736Z,36.03
2023-02-16T09:54:34.328Z,37.30
2023-02-16T09:57:48.144Z,36.72
2023-02-16T10:00:33.091Z,38.58
2023-02-16T10:03:20.806Z,37.08
2023-02-16T10:06:14.115Z,36.55
2023-02-16T10:08:51.486Z,37.60
2023-02-16T10:11:32.395Z,37.15
2023-02-16T10:14:26.738Z,37.28
2023-02-16T10:17:11.621Z,37.90
2023-02-16T10:19:46.239Z,36.75
2023-02-16T10:22:23.833Z,37.05
2023-02-16T10:25:03.534Z,36.55
2023-02-16T10:27:38.241Z,37.13
2023-02-16T10:30:21.405Z,38.35
2023-02-16T10:33:07.247Z,37.35
2023-02-16T10:35:49.244Z,37.35
2023-02-16T10:38:30.805Z,37.35
2023-02-16T10:41:13.647Z,37.35
2023-02-16T10:44:01.536Z,37.17
2023-02-16T10:46:54.913Z,36.88
2023-02-16T10:49:21.823Z,35.83
2023-02-16T10:51:52.697Z,37.50
2023-02-16T10:54:33.065Z,36.00
2023-02-16T10:57:13.503Z,36.53
2023-02-16T10:59:41.879Z,37.03
2023-02-16T11:02:39.653Z,37.80
2023-02-16T11:05:29.571Z,37.65
2023-02-16T11:07:57.772Z,36.22
2023-02-16T11:10:44.150Z,36.42
2023-02-16T11:13:33.053Z,37.35
2023-02-16T11:16:22.062Z,35.55
2023-02-16T11:18:57.891Z,36.63
2023-02-16T11:24:12.666Z,36.15
2023-02-16T11:26:39.907Z,36.80
2023-02-16T11:29:20.013Z,35.88
2023-02-16T11:31:46.958Z,36.05
2023-02-16T11:34:34.598Z,37.20
2023-02-16T11:37:12.486Z,36.55
2023-02-16T11:39:43.701Z,36.33
2023-02-16T11:42:26.533Z,37.00
2023-02-16T11:44:55.789Z,36.92
2023-02-16T11:47:24.631Z,38.33
2023-02-16T11:50:05.261Z,38.97
2023-02-16T11:52:31.940Z,41.03
2023-02-16T11:55:01.040Z,36.70
2023-02-16T11:57:33.989Z,37.42
2023-02-16T12:00:04.281Z,36.30
2023-02-16T12:02:55.594Z,35.30
2023-02-16T12:05:43.611Z,35.30
2023-02-16T12:08:29.161Z,36.67
2023-02-16T12:11:16.717Z,35.22
2023-02-16T12:13:55.343Z,35.72
2023-02-16T12:16:36.607Z,35.15
2023-02-16T12:19:15.329Z,35.78
2023-02-16T12:21:49.333Z,34.65
2023-02-16T12:24:38.568Z,34.17
2023-02-16T12:27:31.451Z,33.88
2023-02-16T12:30:19.971Z,33.65
2023-02-16T12:32:55.762Z,33.35
2023-02-16T12:38:10.549Z,33.47
2023-02-16T12:40:37.153Z,32.42
2023-02-16T12:43:39.630Z,33.47
2023-02-16T12:46:32.190Z,32.63
2023-02-16T12:49:14.204Z,31.98
2023-02-16T12:51:49.845Z,31.65
2023-02-16T12:54:42.865Z,31.55
2023-02-16T12:57:19.633Z,32.22
2023-02-16T12:59:55.682Z,31.10
2023-02-16T13:02:27.307Z,30.92
2023-02-16T13:05:19.862Z,30.60
2023-02-16T13:07:49.029Z,32.42
2023-02-16T13:10:31.137Z,31.67
2023-02-16T13:13:01.482Z,31.20
2023-02-16T13:15:45.408Z,29.98
2023-02-16T13:18:28.279Z,31.15
2023-02-16T13:21:23.943Z,29.92
2023-02-16T13:23:53.624Z,30.70
2023-02-16T13:26:54.011Z,31.50
2023-02-16T13:29:23.396Z,30.80
2023-02-16T13:32:23.404Z,30.85
2023-02-16T13:34:58.817Z,29.83
2023-02-16T13:37:40.181Z,29.88
2023-02-16T13:40:15.064Z,30.02
2023-02-16T13:42:47.480Z,28.83
2023-02-16T13:45:19.714Z,30.10
2023-02-16T13:47:46.921Z,29.98
2023-02-16T13:50:32.736Z,29.13
2023-02-16T13:53:15.873Z,29.38
2023-02-16T13:55:42.942Z,28.00
2023-02-16T13:58:28.638Z,28.48
2023-02-16T14:00:55.407Z,27.10
2023-02-16T14:03:22.013Z,27.80
2023-02-16T14:06:26.683Z,28.25
2023-02-16T14:09:12.297Z,28.90
2023-02-16T14:11:51.284Z,27.67
2023-02-16T14:14:36.661Z,28.95
2023-02-16T14:17:21.455Z,27.77
2023-02-16T14:19:57.440Z,28.25
2023-02-16T14:22:26.905Z,27.65
2023-02-16T14:24:57.129Z,27.40
2023-02-16T14:28:04.533Z,27.40
2023-02-16T14:30:48.465Z,26.63
2023-02-16T14:33:15.178Z,26.63
2023-02-16T14:35:45.616Z,27.75
2023-02-16T14:38:36.421Z,28.05
2023-02-16T14:41:06.048Z,27.05
2023-02-16T14:43:45.493Z,27.88
2023-02-16T14:46:50.957Z,27.42
2023-02-16T14:49:36.367Z,26.75
2023-02-16T14:52:27.382Z,27.05
2023-02-16T14:55:27.916Z,28.35
2023-02-16T14:58:25.060Z,26.95
2023-02-16T15:01:00.111Z,25.05
2023-02-16T15:03:41.069Z,26.88
2023-02-16T15:06:14.299Z,26.33
2023-02-16T15:08:44.497Z,26.58
2023-02-16T15:11:20.606Z,26.27
2023-02-16T15:13:47.570Z,27.13
2023-02-16T15:16:17.127Z,27.70
2023-02-16T15:18:55.478Z,26.25
2023-02-16T15:21:27.492Z,25.98
2023-02-16T15:23:56.895Z,26.55
2023-02-16T15:26:32.780Z,25.42
2023-02-16T15:29:02.301Z,25.67
2023-02-16T15:31:33.411Z,25.20
2023-02-16T15:34:04.941Z,25.48
2023-02-16T15:36:40.429Z,24.63
2023-02-16T15:39:13.614Z,25.33
2023-02-16T15:41:45.939Z,24.25
2023-02-16T15:44:30.529Z,23.75
2023-02-16T15:47:07.483Z,24.05
2023-02-16T15:49:34.732Z,26.70
2023-02-16T15:52:02.030Z,23.83
2023-02-16T15:54:31.185Z,23.55
2023-02-16T15:57:13.224Z,23.90
2023-02-16T15:59:47.690Z,23.50
2023-02-16T16:02:17.205Z,23.90
2023-02-16T16:04:54.908Z,23.13
2023-02-16T16:07:29.890Z,24.35
2023-02-16T16:09:57.625Z,23.67
2023-02-16T16:12:25.346Z,24.83
2023-02-16T16:14:56.196Z,24.75
2023-02-16T16:17:37.140Z,24.50
2023-02-16T16:20:28.593Z,23.35
2023-02-16T16:22:56.977Z,24.27
2023-02-16T16:25:35.853Z,25.33
2023-02-16T16:28:04.579Z,24.38
2023-02-16T16:30:33.689Z,24.23
2023-02-16T16:33:07.187Z,23.33
2023-02-16T16:35:43.409Z,24.00
2023-02-16T16:38:24.160Z,24.88
2023-02-16T16:40:53.431Z,23.83
2023-02-16T16:43:28.434Z,25.15
2023-02-16T16:46:17.355Z,24.08
2023-02-16T16:48:46.372Z,25.20
2023-02-16T16:51:19.398Z,25.13
2023-02-16T16:54:02.460Z,26.05
2023-02-16T16:56:30.620Z,26.10
2023-02-16T16:58:59.131Z,26.48
2023-02-16T17:01:28.474Z,25.98
2023-02-16T17:03:55.424Z,26.83
2023-02-16T17:06:22.980Z,26.55
2023-02-16T17:08:50.012Z,27.38
2023-02-16T17:11:29.554Z,28.73
2023-02-16T17:13:58.292Z,28.02
2023-02-16T17:16:29.201Z,27.65
2023-02-16T17:18:55.889Z,28.85
2023-02-16T17:21:22.882Z,30.75
2023-02-16T17:23:53.063Z,32.20
2023-02-16T17:26:21.202Z,30.20
2023-02-16T17:28:47.934Z,30.90
2023-02-16T17:31:14.757Z,29.50
2023-02-16T17:33:41.813Z,29.77
2023-02-16T17:36:12.618Z,29.35
2023-02-16T17:38:39.313Z,30.42
2023-02-16T17:41:06.164Z,30.52
2023-02-16T17:43:33.116Z,28.98
2023-02-16T17:45:59.897Z,28.77
2023-02-16T17:48:29.322Z,29.45
2023-02-16T17:50:57.159Z,29.77
2023-02-16T17:53:25.822Z,29.40
2023-02-16T17:55:56.019Z,29.58
2023-02-16T17:58:24.065Z,30.10
2023-02-16T18:00:51.359Z,28.50
2023-02-16T18:03:18.196Z,29.55
2023-02-16T18:05:45.285Z,28.60
2023-02-16T18:08:12.378Z,28.77
2023-02-16T18:10:43.497Z,29.27
2023-02-16T18:13:11.144Z,29.20
2023-02-16T18:15:40.391Z,28.65
2023-02-16T18:18:08.277Z,28.73
2023-02-16T18:20:35.169Z,28.65
2023-02-16T18:23:02.055Z,30.15
2023-02-16T18:25:28.799Z,29.38
2023-02-16T18:27:55.560Z,29.38
2023-02-16T18:30:22.447Z,29.42
2023-02-16T18:32:49.281Z,29.40
2023-02-16T18:35:16.674Z,29.63
2023-02-16T18:37:44.537Z,30.35
2023-02-16T18:40:19.102Z,31.02
2023-02-16T18:42:47.112Z,30.10
2023-02-16T18:45:14.339Z,31.48
2023-02-16T18:47:41.348Z,30.63
2023-02-16T18:50:08.603Z,31.27
2023-02-16T18:52:35.653Z,31.10
2023-02-16T18:55:02.372Z,30.77
2023-02-16T18:57:29.071Z,30.02
2023-02-16T18:59:55.780Z,29.83
2023-02-16T19:02:22.471Z,31.15
2023-02-16T19:04:49.175Z,37.13
2023-02-16T19:07:15.881Z,30.98
2023-02-16T19:09:42.773Z,30.65
2023-02-16T19:12:09.575Z,29.95
2023-02-16T19:14:36.409Z,29.60
2023-02-16T19:17:03.670Z,30.90
2023-02-16T19:19:31.101Z,29.02
2023-02-16T19:21:58.076Z,30.17
2023-02-16T19:24:25.252Z,30.17
2023-02-16T19:26:51.990Z,28.52
2023-02-16T19:29:19.256Z,29.25
2023-02-16T19:31:45.979Z,29.10
2023-02-16T19:34:12.817Z,29.70
2023-02-16T19:36:39.805Z,29.98
2023-02-16T19:39:06.531Z,30.25
2023-02-16T19:41:38.341Z,31.15
2023-02-16T19:44:05.367Z,29.85
2023-02-16T19:46:32.156Z,31.52
2023-02-16T19:48:59.459Z,29.80
2023-02-16T19:51:27.341Z,29.10
2023-02-16T19:53:54.049Z,29.20
2023-02-16T19:56:23.962Z,29.23
2023-02-16T19:58:51.072Z,29.20
2023-02-16T20:01:25.671Z,29.55
2023-02-16T20:03:53.951Z,30.60
2023-02-16T20:06:27.282Z,29.92
2023-02-16T20:08:55.045Z,28.90
2023-02-16T20:11:25.346Z,30.58
2023-02-16T20:13:52.430Z,30.25
2023-02-16T20:16:20.725Z,28.58
2023-02-16T20:18:48.238Z,30.42
2023-02-16T20:21:25.074Z,30.27
2023-02-16T20:23:55.015Z,29.48
2023-02-16T20:26:28.916Z,29.70
2023-02-16T20:28:56.095Z,29.60
2023-02-16T20:31:39.149Z,30.92
2023-02-16T20:34:07.100Z,30.90
2023-02-16T20:36:34.163Z,28.77
2023-02-16T20:39:01.153Z,31.40
2023-02-16T20:41:27.825Z,30.42
2023-02-16T20:43:54.570Z,30.67
2023-02-16T20:46:21.424Z,30.23
2023-02-16T20:48:48.166Z,29.88
2023-02-16T20:51:14.856Z,30.27
2023-02-16T20:53:42.062Z,29.40
2023-02-16T20:56:13.000Z,31.45
2023-02-16T20:58:39.724Z,30.88
2023-02-16T21:01:30.684Z,31.80
2023-02-16T21:03:58.996Z,30.02
2023-02-16T21:06:29.352Z,30.13
2023-02-16T21:08:56.930Z,30.77
2023-02-16T21:11:24.356Z,29.05
2023-02-16T21:13:51.632Z,32.95
2023-02-16T21:16:18.691Z,32.30
2023-02-16T21:18:45.734Z,33.38
2023-02-16T21:21:12.686Z,30.67
2023-02-16T21:23:39.385Z,33.42
2023-02-16T21:26:07.300Z,31.55
2023-02-16T21:28:34.316Z,33.40
2023-02-16T21:31:06.420Z,32.05
2023-02-16T21:33:33.444Z,34.97
2023-02-16T21:36:06.400Z,35.85
2023-02-16T21:38:35.020Z,33.83
2023-02-16T21:41:06.906Z,32.65
2023-02-16T21:43:33.570Z,32.83
2023-02-16T21:46:01.189Z,33.35
2023-02-16T21:48:28.032Z,33.10
2023-02-16T21:50:54.708Z,32.47
2023-02-16T21:53:21.570Z,32.58
2023-02-16T21:55:48.325Z,32.03
2023-02-16T21:58:15.610Z,32.90
2023-02-16T22:00:42.915Z,32.47
2023-02-16T22:03:12.344Z,33.28
2023-02-16T22:05:39.040Z,32.20
2023-02-16T22:08:05.964Z,32.90
2023-02-16T22:10:34.352Z,32.00
2023-02-16T22:13:01.283Z,33.88
2023-02-16T22:15:28.092Z,32.72
2023-02-16T22:17:54.990Z,32.55
2023-02-16T22:20:21.908Z,32.50
2023-02-16T22:22:48.646Z,33.33
2023-02-16T22:25:15.446Z,33.03
2023-02-16T22:27:42.116Z,32.85
2023-02-16T22:30:09.181Z,32.50
2023-02-16T22:32:35.882Z,32.63
2023-02-16T22:35:02.722Z,32.70
2023-02-16T22:37:29.434Z,34.22
2023-02-16T22:39:56.095Z,35.10
2023-02-16T22:42:23.198Z,34.50
2023-02-16T22:44:49.943Z,34.55
2023-02-16T22:47:16.843Z,35.17
2023-02-16T22:49:43.620Z,35.53
2023-02-16T22:52:10.410Z,35.05
2023-02-16T22:54:38.014Z,35.08
2023-02-16T22:57:04.836Z,35.67
2023-02-16T22:59:31.571Z,34.13
2023-02-16T23:01:58.310Z,35.28
2023-02-16T23:04:24.979Z,35.65
2023-02-16T23:06:51.784Z,36.20
2023-02-16T23:09:20.525Z,34.03
2023-02-16T23:11:47.977Z,34.70
2023-02-16T23:14:15.546Z,35.35
2023-02-16T23:16:47.218Z,35.50
2023-02-16T23:19:16.236Z,36.83
2023-02-16T23:21:43.015Z,36.35
2023-02-16T23:24:15.244Z,36.70
2023-02-16T23:26:42.540Z,37.08
2023-02-16T23:29:09.500Z,35.55
2023-02-16T23:31:38.183Z,37.38
2023-02-16T23:34:06.247Z,36.78
2023-02-16T23:36:34.946Z,37.75
2023-02-16T23:39:03.750Z,37.50
2023-02-16T23:41:30.505Z,36.13
2023-02-16T23:43:58.537Z,37.22
2023-02-16T23:46:26.768Z,37.05
2023-02-16T23:48:53.524Z,37.85
2023-02-16T23:51:20.189Z,39.67
2023-02-16T23:53:47.201Z,37.63
2023-02-16T23:56:20.569Z,38.60
2023-02-16T23:58:47.785Z,37.78
